createdAt,value
2019-03-11T00:00:15.035Z,974.44
2019-03-11T00:05:15.031Z,974.48
2019-03-11T00:10:15.094Z,974.49
2019-03-11T00:15:14.990Z,974.68
2019-03-11T00:20:15.067Z,974.70
2019-03-11T00:25:15.069Z,974.91
2019-03-11T00:30:15.040Z,975.12
2019-03-11T00:35:15.041Z,975.27
2019-03-11T00:40:15.060Z,975.40
2019-03-11T00:45:15.025Z,975.75
2019-03-11T00:50:15.080Z,976.16
2019-03-11T00:55:15.094Z,976.16
2019-03-11T01:00:15.054Z,976.22
2019-03-11T01:05:15.081Z,976.38
2019-03-11T01:10:15.159Z,976.48
2019-03-11T01:15:15.060Z,976.46
2019-03-11T01:20:15.091Z,976.75
2019-03-11T01:25:15.114Z,976.68
2019-03-11T01:30:15.065Z,976.91
2019-03-11T01:35:15.129Z,976.94
2019-03-11T01:40:15.181Z,977.18
2019-03-11T01:45:15.055Z,977.09
2019-03-11T01:50:15.110Z,977.22
2019-03-11T01:55:15.161Z,977.05
2019-03-11T02:00:15.098Z,977.17
2019-03-11T02:05:15.120Z,977.31
2019-03-11T02:10:15.164Z,977.15
2019-03-11T02:15:15.107Z,977.31
2019-03-11T02:20:15.141Z,977.29
2019-03-11T02:25:15.153Z,977.25
2019-03-11T02:30:15.189Z,977.36
2019-03-11T02:35:15.112Z,977.57
2019-03-11T02:40:15.218Z,977.48
2019-03-11T02:45:15.156Z,977.44
2019-03-11T02:50:15.155Z,977.45
2019-03-11T02:55:15.166Z,977.67
2019-03-11T03:00:15.131Z,977.62
2019-03-11T03:05:15.150Z,977.89
2019-03-11T03:10:15.224Z,977.87
2019-03-11T03:15:15.143Z,978.09
2019-03-11T03:20:15.171Z,978.16
2019-03-11T03:25:15.185Z,978.29
2019-03-11T03:30:15.168Z,978.36
2019-03-11T03:35:15.163Z,978.54
2019-03-11T03:40:15.226Z,978.41
2019-03-11T03:45:15.173Z,978.62
2019-03-11T03:50:15.175Z,978.62
2019-03-11T03:55:15.211Z,978.82
2019-03-11T04:00:15.186Z,978.88
2019-03-11T04:05:15.203Z,978.91
2019-03-11T04:10:15.206Z,979.11
2019-03-11T04:15:15.186Z,979.15
2019-03-11T04:20:15.193Z,979.30
2019-03-11T04:25:15.215Z,979.22
2019-03-11T04:30:15.184Z,979.21
2019-03-11T04:35:15.216Z,979.29
2019-03-11T04:40:15.301Z,979.27
2019-03-11T04:45:15.197Z,979.34
2019-03-11T04:50:15.251Z,979.41
2019-03-11T04:55:15.293Z,979.35
2019-03-11T05:00:15.216Z,979.25
2019-03-11T05:05:15.320Z,979.40
2019-03-11T05:10:16.409Z,979.39
2019-03-11T05:15:15.225Z,979.58
2019-03-11T05:20:15.256Z,979.68
2019-03-11T05:25:15.257Z,979.71
2019-03-11T05:30:15.233Z,979.77
2019-03-11T05:35:15.271Z,979.82
2019-03-11T05:40:15.313Z,979.86
2019-03-11T05:45:15.237Z,979.82
2019-03-11T05:50:15.244Z,979.96
2019-03-11T05:55:15.308Z,979.71
2019-03-11T06:00:15.257Z,979.80
2019-03-11T06:05:15.288Z,979.82
2019-03-11T06:10:15.300Z,979.78
2019-03-11T06:15:15.267Z,979.91
2019-03-11T06:20:15.278Z,979.81
2019-03-11T06:25:15.331Z,979.86
2019-03-11T06:30:15.283Z,980.06
2019-03-11T06:35:15.301Z,979.95
2019-03-11T06:40:15.306Z,979.90
2019-03-11T06:45:15.278Z,979.90
2019-03-11T06:50:15.298Z,979.97
2019-03-11T06:55:15.386Z,980.05
2019-03-11T07:00:15.283Z,980.25
2019-03-11T07:05:20.258Z,980.28
2019-03-11T07:10:15.336Z,980.26
2019-03-11T07:15:15.302Z,980.17
2019-03-11T07:20:15.319Z,980.10
2019-03-11T07:25:15.338Z,979.88
2019-03-11T07:30:15.283Z,979.91
2019-03-11T07:35:15.336Z,979.81
2019-03-11T07:40:15.410Z,979.95
2019-03-11T07:45:15.316Z,979.70
2019-03-11T07:50:15.345Z,979.72
2019-03-11T07:55:15.370Z,979.61
2019-03-11T08:00:15.322Z,979.72
2019-03-11T08:05:15.367Z,979.57
2019-03-11T08:10:15.364Z,979.30
2019-03-11T08:15:15.357Z,979.31
2019-03-11T08:20:15.364Z,979.43
2019-03-11T08:25:15.406Z,979.34
2019-03-11T08:30:15.357Z,979.15
2019-03-11T08:35:15.368Z,979.22
2019-03-11T08:40:15.412Z,979.20
2019-03-11T08:45:15.376Z,979.18
2019-03-11T08:50:15.409Z,979.06
2019-03-11T08:55:15.502Z,978.66
2019-03-11T09:00:15.381Z,978.19
2019-03-11T09:05:15.390Z,978.06
2019-03-11T09:10:15.437Z,977.90
2019-03-11T09:15:15.367Z,977.78
2019-03-11T09:20:15.408Z,977.72
2019-03-11T09:25:15.422Z,977.94
2019-03-11T09:30:15.408Z,977.81
2019-03-11T09:35:15.411Z,977.62
2019-03-11T09:40:15.449Z,977.36
2019-03-11T09:45:15.399Z,977.23
2019-03-11T09:50:15.414Z,976.95
2019-03-11T09:55:15.464Z,976.80
2019-03-11T10:00:15.419Z,976.53
2019-03-11T10:05:15.457Z,976.41
2019-03-11T10:10:15.481Z,976.22
2019-03-11T10:15:15.441Z,976.32
2019-03-11T10:20:15.446Z,976.52
2019-03-11T10:25:15.490Z,976.51
2019-03-11T10:30:15.441Z,976.52
2019-03-11T10:35:30.662Z,976.59
2019-03-11T10:40:15.488Z,976.45
2019-03-11T10:45:15.459Z,976.09
2019-03-11T10:50:15.458Z,976.28
2019-03-11T10:55:15.510Z,976.42
2019-03-11T11:00:15.508Z,976.16
2019-03-11T11:05:15.516Z,976.14
2019-03-11T11:10:15.524Z,975.82
2019-03-11T11:15:15.509Z,975.84
2019-03-11T11:20:15.509Z,975.78
2019-03-11T11:25:15.549Z,976.15
2019-03-11T11:30:15.484Z,976.13
2019-03-11T11:35:15.551Z,976.05
2019-03-11T11:40:15.528Z,976.02
2019-03-11T11:45:15.511Z,976.06
2019-03-11T11:50:15.521Z,976.18
2019-03-11T11:55:15.556Z,976.39
2019-03-11T12:00:15.526Z,976.52
2019-03-11T12:05:15.525Z,976.74
2019-03-11T12:10:15.560Z,976.92
2019-03-11T12:15:15.519Z,977.00
2019-03-11T12:20:15.562Z,977.25
2019-03-11T12:25:15.623Z,977.20
2019-03-11T12:30:15.538Z,977.32
2019-03-11T12:35:15.553Z,977.16
2019-03-11T12:40:15.559Z,977.06
2019-03-11T12:45:15.538Z,977.29
2019-03-11T12:50:15.583Z,977.24
2019-03-11T12:55:15.636Z,977.22
2019-03-11T13:00:15.547Z,977.11
2019-03-11T13:05:15.565Z,977.15
2019-03-11T13:10:15.594Z,977.20
2019-03-11T13:15:15.572Z,977.28
2019-03-11T13:20:15.607Z,977.35
2019-03-11T13:25:15.701Z,977.49
2019-03-11T13:30:15.581Z,977.70
2019-03-11T13:35:15.612Z,977.81
2019-03-11T13:40:15.624Z,977.63
2019-03-11T13:45:15.579Z,977.47
2019-03-11T13:50:15.602Z,977.51
2019-03-11T13:55:15.636Z,977.66
2019-03-11T14:00:15.603Z,977.75
2019-03-11T14:05:15.601Z,977.79
2019-03-11T14:10:15.678Z,977.93
2019-03-11T14:15:15.626Z,977.78
2019-03-11T14:20:15.644Z,977.87
2019-03-11T14:25:15.632Z,977.94
2019-03-11T14:30:15.606Z,977.97
2019-03-11T14:35:15.637Z,978.02
2019-03-11T14:40:15.684Z,978.08
2019-03-11T14:45:15.642Z,978.10
2019-03-11T14:50:15.652Z,978.38
2019-03-11T14:55:15.671Z,978.38
2019-03-11T15:00:18.126Z,978.50
2019-03-11T15:05:15.651Z,978.66
2019-03-11T15:10:15.678Z,978.76
2019-03-11T15:15:15.657Z,978.79
2019-03-11T15:20:15.681Z,978.87
2019-03-11T15:25:15.691Z,978.98
2019-03-11T15:30:15.648Z,979.04
2019-03-11T15:35:15.697Z,979.01
2019-03-11T15:40:15.752Z,979.13
2019-03-11T15:45:15.661Z,979.09
2019-03-11T15:50:15.699Z,979.06
2019-03-11T15:55:15.802Z,979.15
2019-03-11T16:00:15.682Z,978.94
2019-03-11T16:05:15.693Z,979.11
2019-03-11T16:10:17.061Z,979.19
2019-03-11T16:15:15.685Z,979.32
2019-03-11T16:20:15.735Z,979.34
2019-03-11T16:25:15.803Z,979.27
2019-03-11T16:30:15.701Z,979.48
2019-03-11T16:35:15.758Z,979.46
2019-03-11T16:40:15.778Z,979.31
2019-03-11T16:45:15.706Z,979.44
2019-03-11T16:50:15.725Z,979.49
2019-03-11T16:55:15.752Z,979.41
2019-03-11T17:00:15.765Z,979.55
2019-03-11T17:05:15.760Z,979.68
2019-03-11T17:10:15.793Z,979.94
2019-03-11T17:15:15.731Z,980.09
2019-03-11T17:20:15.749Z,980.16
2019-03-11T17:25:15.779Z,980.27
2019-03-11T17:30:15.745Z,980.38
2019-03-11T17:35:15.761Z,980.38
2019-03-11T17:40:15.822Z,980.56
2019-03-11T17:45:16.096Z,980.55
2019-03-11T17:50:15.760Z,980.79
2019-03-11T17:55:15.815Z,980.97
2019-03-11T18:00:15.774Z,981.03
2019-03-11T18:05:15.787Z,980.96
2019-03-11T18:10:15.858Z,981.12
2019-03-11T18:15:16.042Z,981.28
2019-03-11T18:20:15.769Z,981.36
2019-03-11T18:25:15.829Z,981.43
2019-03-11T18:30:15.788Z,981.33
2019-03-11T18:35:15.812Z,981.29
2019-03-11T18:40:15.908Z,981.40
2019-03-11T18:45:15.784Z,981.38
2019-03-11T18:50:15.818Z,981.34
2019-03-11T18:55:15.849Z,981.24
2019-03-11T19:00:15.851Z,981.32
2019-03-11T19:05:15.992Z,981.57
2019-03-11T19:10:15.868Z,981.67
2019-03-11T19:15:15.808Z,981.74
2019-03-11T19:20:15.851Z,981.72
2019-03-11T19:25:15.940Z,981.74
2019-03-11T19:30:15.822Z,981.84
2019-03-11T19:35:15.844Z,981.98
2019-03-11T19:40:15.936Z,981.87
2019-03-11T19:45:15.861Z,981.94
2019-03-11T19:50:15.889Z,981.84
2019-03-11T19:55:15.881Z,981.91
2019-03-11T20:00:15.843Z,981.81
2019-03-11T20:05:15.875Z,981.88
2019-03-11T20:10:15.909Z,981.89
2019-03-11T20:15:15.854Z,981.97
2019-03-11T20:20:15.884Z,982.12
2019-03-11T20:25:15.968Z,982.13
2019-03-11T20:30:15.861Z,982.28
2019-03-11T20:35:17.583Z,982.18
2019-03-11T20:40:15.887Z,982.26
2019-03-11T20:45:15.879Z,982.19
2019-03-11T20:50:15.898Z,982.23
2019-03-11T20:55:15.963Z,982.26
2019-03-11T21:00:15.903Z,982.38
2019-03-11T21:05:15.906Z,982.47
2019-03-11T21:10:15.932Z,982.44
2019-03-11T21:15:15.889Z,982.59
2019-03-11T21:20:15.888Z,982.39
2019-03-11T21:25:15.945Z,982.37
2019-03-11T21:30:15.919Z,982.47
2019-03-11T21:35:15.979Z,982.66
2019-03-11T21:40:16.068Z,982.58
2019-03-11T21:45:15.945Z,982.49
2019-03-11T21:50:15.931Z,982.28
2019-03-11T21:55:16.059Z,982.31
2019-03-11T22:00:15.947Z,982.21
2019-03-11T22:05:15.948Z,982.02
2019-03-11T22:10:15.953Z,982.00
2019-03-11T22:15:15.920Z,982.20
2019-03-11T22:20:15.948Z,982.30
2019-03-11T22:25:15.974Z,982.33
2019-03-11T22:30:15.935Z,982.27
2019-03-11T22:35:15.935Z,982.24
2019-03-11T22:40:15.955Z,982.24
2019-03-11T22:45:16.923Z,982.26
2019-03-11T22:50:17.768Z,982.20
2019-03-11T22:55:16.007Z,982.27
2019-03-11T23:00:15.945Z,982.27
2019-03-11T23:05:15.974Z,982.25
2019-03-11T23:10:15.979Z,982.03
2019-03-11T23:15:15.942Z,982.22
2019-03-11T23:20:15.964Z,982.18
2019-03-11T23:25:16.067Z,982.24
2019-03-11T23:30:16.022Z,982.24
2019-03-11T23:35:15.998Z,982.27
2019-03-11T23:40:16.012Z,982.18
2019-03-11T23:45:15.982Z,982.29
2019-03-11T23:50:19.056Z,982.26
2019-03-11T23:55:16.005Z,982.45
